Time;durP1;ratioP1;P1;durP2;ratioP2;P2;SDS_P1;SDS_P2;PMS_P1;PMS_P2;Temp;Humidity;BMP_temperature;BMP_pressure;BME280_temperature;BME280_humidity;BME280_pressure;Samples;Min_cycle;Max_cycle;Signal;HPM_P1;HPM_P2
2022/04/23 00:05:47;;;;;;;5.50;3.58;;;13.00;77.00;;;;;;10909564;32;20061;-74
2022/04/23 00:11:49;;;;;;;6.97;4.70;;;13.00;76.90;;;;;;10909312;32;20309;-74
2022/04/23 00:17:51;;;;;;;6.45;4.15;;;13.10;76.80;;;;;;10909025;32;20042;-74
2022/04/23 00:23:53;;;;;;;5.30;3.67;;;13.00;76.80;;;;;;10906743;32;20035;-73
2022/04/23 00:29:55;;;;;;;5.45;3.72;;;13.00;76.70;;;;;;10908731;32;20040;-73
2022/04/23 00:35:58;;;;;;;5.65;3.72;;;13.00;76.70;;;;;;10908567;32;20046;-73
2022/04/23 00:42:01;;;;;;;5.22;4.03;;;13.00;76.70;;;;;;10905217;32;20446;-74
2022/04/23 00:48:04;;;;;;;3.80;3.08;;;12.90;76.60;;;;;;10907983;32;20348;-73
2022/04/23 00:54:08;;;;;;;6.90;5.57;;;13.00;76.50;;;;;;10907575;32;20023;-73
2022/04/23 01:00:12;;;;;;;5.30;4.47;;;12.90;76.60;;;;;;10907214;32;20035;-73
2022/04/23 01:06:14;;;;;;;7.32;5.20;;;12.80;76.80;;;;;;10907275;32;20019;-73
2022/04/23 01:12:17;;;;;;;9.55;6.07;;;12.80;77.00;;;;;;10906937;32;20043;-73
2022/04/23 01:18:19;;;;;;;6.05;4.47;;;12.70;77.20;;;;;;11016355;27;20030;-74
2022/04/23 01:24:21;;;;;;;5.87;3.78;;;12.60;77.40;;;;;;11020041;32;20021;-74
2022/04/23 01:30:24;;;;;;;4.53;3.12;;;12.60;77.40;;;;;;11019880;32;20061;-73
2022/04/23 01:36:26;;;;;;;4.28;3.65;;;12.60;77.30;;;;;;11015382;32;20026;-73
2022/04/23 01:42:28;;;;;;;4.53;3.20;;;12.50;77.20;;;;;;11017134;32;20026;-73
2022/04/23 01:48:30;;;;;;;5.15;3.35;;;12.40;77.20;;;;;;11019141;32;20386;-73
2022/04/23 01:54:33;;;;;;;3.25;2.50;;;12.40;77.10;;;;;;11015683;32;20056;-73
2022/04/23 02:00:36;;;;;;;4.78;2.67;;;12.40;77.10;;;;;;11018855;32;20343;-73
2022/04/23 02:06:39;;;;;;;4.15;2.55;;;12.30;77.00;;;;;;11014778;32;20296;-73
2022/04/23 02:12:42;;;;;;;3.72;2.50;;;12.20;77.10;;;;;;11017570;32;20054;-73
2022/04/23 02:18:45;;;;;;;6.97;3.70;;;12.20;77.10;;;;;;11018101;32;20341;-73
2022/04/23 02:24:47;;;;;;;5.90;3.62;;;12.20;77.00;;;;;;11017889;32;20321;-73
2022/04/23 02:30:49;;;;;;;5.80;4.00;;;12.20;77.10;;;;;;11013632;32;20034;-74
2022/04/23 02:36:51;;;;;;;6.03;3.67;;;12.30;77.10;;;;;;11017896;32;20080;-70
2022/04/23 02:42:53;;;;;;;3.15;2.42;;;12.30;77.00;;;;;;11003847;32;20322;-70
2022/04/23 02:48:55;;;;;;;3.92;2.10;;;12.20;76.90;;;;;;11017414;32;20010;-70
2022/04/23 02:54:57;;;;;;;3.50;2.17;;;12.10;77.10;;;;;;11017186;32;20034;-70
2022/04/23 03:00:59;;;;;;;3.25;2.08;;;12.00;77.00;;;;;;11017104;32;20432;-69
2022/04/23 03:07:03;;;;;;;7.80;4.47;;;12.00;76.90;;;;;;11016932;32;20096;-69
2022/04/23 03:13:07;;;;;;;2.85;1.98;;;12.00;76.90;;;;;;11016790;32;20049;-69
2022/04/23 03:19:09;;;;;;;6.25;3.95;;;12.00;76.90;;;;;;11016932;32;20330;-69
2022/04/23 03:25:12;;;;;;;5.82;3.67;;;12.00;76.80;;;;;;11023990;32;20394;-69
2022/04/23 03:31:14;;;;;;;7.57;3.75;;;11.90;76.70;;;;;;11005870;32;20023;-69
2022/04/23 03:37:17;;;;;;;5.37;3.12;;;11.80;77.00;;;;;;11021136;32;20052;-69
2022/04/23 03:43:25;;;;;;;6.75;4.75;;;11.70;77.00;;;;;;11020417;32;20056;-69
2022/04/23 03:49:29;;;;;;;4.83;3.50;;;11.70;77.10;;;;;;11019758;32;20052;-69
2022/04/23 03:55:31;;;;;;;3.92;2.37;;;11.70;77.00;;;;;;11021773;32;20335;-69
2022/04/23 04:01:34;;;;;;;5.85;3.30;;;11.70;76.90;;;;;;11022651;32;20053;-69
2022/04/23 04:07:42;;;;;;;3.83;2.55;;;11.80;76.80;;;;;;11022267;32;20044;-69
2022/04/23 04:13:44;;;;;;;6.18;3.03;;;11.80;76.70;;;;;;11006821;32;20034;-69
2022/04/23 04:19:46;;;;;;;5.70;3.85;;;11.70;76.70;;;;;;11022115;32;20026;-69
2022/04/23 04:26:00;;;;;;;5.45;3.35;;;11.70;76.90;;;;;;11019432;32;20052;-69
2022/04/23 04:32:03;;;;;;;4.85;2.40;;;11.70;76.80;;;;;;11021143;32;20022;-69
2022/04/23 04:38:05;;;;;;;6.47;5.22;;;11.70;76.70;;;;;;11004393;32;20053;-69
2022/04/23 04:44:08;;;;;;;6.28;3.90;;;11.80;76.70;;;;;;11003672;32;20022;-69
2022/04/23 04:50:10;;;;;;;5.57;2.83;;;11.80;76.60;;;;;;11019319;32;20389;-69
2022/04/23 04:56:12;;;;;;;4.78;3.08;;;11.80;76.80;;;;;;11019229;32;20049;-69
2022/04/23 05:02:14;;;;;;;4.18;2.90;;;11.80;76.70;;;;;;11020653;32;20394;-69
2022/04/23 05:08:17;;;;;;;4.97;2.72;;;11.80;76.70;;;;;;11020269;32;20026;-69
2022/04/23 05:14:20;;;;;;;4.37;2.55;;;11.70;76.60;;;;;;11016963;32;20034;-69
2022/04/23 05:20:23;;;;;;;2.78;2.12;;;11.70;76.70;;;;;;11019749;32;20053;-69
2022/04/23 05:26:25;;;;;;;2.08;1.52;;;11.70;76.70;;;;;;10994866;32;20026;-70
2022/04/23 05:32:27;;;;;;;2.87;1.60;;;11.80;76.60;;;;;;10981262;32;20069;-69
2022/04/23 05:38:29;;;;;;;4.40;2.53;;;11.90;76.50;;;;;;10980166;32;20551;-69
2022/04/23 05:44:31;;;;;;;4.85;3.10;;;12.00;76.30;;;;;;10975859;32;20084;-73
2022/04/23 05:50:33;;;;;;;5.90;4.35;;;12.20;76.10;;;;;;10979705;32;20045;-73
2022/04/23 05:56:35;;;;;;;8.10;5.82;;;12.30;76.00;;;;;;10976927;32;20026;-73
2022/04/23 06:02:38;;;;;;;8.70;6.22;;;12.50;75.80;;;;;;10979803;32;20031;-73
2022/04/23 06:08:41;;;;;;;9.07;5.37;;;12.70;76.00;;;;;;10976652;32;20433;-74
2022/04/23 06:14:46;;;;;;;13.48;10.45;;;12.70;76.50;;;;;;10978819;32;20061;-74
2022/04/23 06:20:48;;;;;;;11.50;8.82;;;12.70;76.80;;;;;;10980024;32;20433;-74
2022/04/23 06:26:50;;;;;;;14.18;8.55;;;12.80;77.10;;;;;;10977988;32;20072;-74
2022/04/23 06:32:52;;;;;;;8.60;6.00;;;12.80;77.60;;;;;;10979709;32;20080;-73
2022/04/23 06:38:54;;;;;;;11.80;8.40;;;12.90;77.40;;;;;;10979567;32;20053;-73
2022/04/23 06:45:21;;;;;;;9.88;7.18;;;13.00;77.40;;;;;;10976737;32;20366;-75
2022/04/23 06:51:42;;;;;;;13.60;9.15;;;13.10;77.60;;;;;;10978744;32;20326;-75
2022/04/23 06:57:44;;;;;;;9.32;6.05;;;13.20;77.60;;;;;;10984200;32;20027;-74
2022/04/23 07:03:46;;;;;;;14.70;11.35;;;13.30;77.50;;;;;;10985345;32;20026;-73
2022/04/23 07:09:48;;;;;;;7.25;4.87;;;13.40;77.50;;;;;;10985695;32;20045;-74
2022/04/23 07:15:51;;;;;;;7.12;4.70;;;13.50;77.50;;;;;;10986600;32;20030;-73
2022/04/23 07:21:52;;;;;;;8.85;4.68;;;13.50;77.40;;;;;;10987418;32;20383;-73
2022/04/23 07:27:55;;;;;;;9.88;7.12;;;13.50;77.30;;;;;;10982113;32;20031;-74
2022/04/23 07:40:18;;;;;;;9.80;5.47;;;13.90;77.30;;;;;;10985099;32;20018;-75
2022/04/23 07:46:20;;;;;;;3.97;2.62;;;14.10;77.10;;;;;;10985902;32;20073;-74
2022/04/23 07:52:22;;;;;;;6.55;4.22;;;14.20;76.90;;;;;;10985432;32;20038;-74
2022/04/23 07:58:24;;;;;;;5.22;3.37;;;14.20;76.90;;;;;;10969307;32;20341;-74
2022/04/23 08:04:26;;;;;;;4.53;2.87;;;14.30;76.90;;;;;;10980458;32;20027;-75
2022/04/23 08:10:28;;;;;;;4.50;3.00;;;14.40;77.00;;;;;;10979795;32;20057;-75
2022/04/23 08:16:30;;;;;;;5.25;3.40;;;14.50;76.80;;;;;;10984508;32;20027;-74
2022/04/23 08:22:34;;;;;;;6.70;4.28;;;14.70;76.40;;;;;;10984416;32;20019;-74
2022/04/23 08:34:56;;;;;;;8.50;6.32;;;14.90;76.40;;;;;;10982876;32;20312;-74
2022/04/23 08:40:59;;;;;;;6.30;3.12;;;15.00;76.30;;;;;;10982773;32;20042;-74
2022/04/23 08:47:02;;;;;;;4.30;2.92;;;15.00;76.40;;;;;;10978419;32;20080;-73
2022/04/23 08:53:18;;;;;;;7.70;4.07;;;15.00;76.30;;;;;;10982188;32;20034;-73
2022/04/23 08:59:21;;;;;;;11.73;5.32;;;15.10;76.20;;;;;;10982161;32;20027;-73
2022/04/23 09:05:27;;;;;;;6.55;2.83;;;15.20;76.10;;;;;;10981953;32;20022;-73
2022/04/23 09:11:35;;;;;;;4.10;3.05;;;15.40;75.60;;;;;;10977466;32;20057;-73
2022/04/23 09:24:11;;;;;;;5.20;3.37;;;15.40;75.40;;;;;;10942558;32;20042;-73
2022/04/23 09:30:14;;;;;;;5.65;4.20;;;15.50;75.50;;;;;;10943494;32;20050;-74
2022/04/23 09:36:19;;;;;;;7.00;4.05;;;15.70;75.20;;;;;;10942562;32;20035;-73
2022/04/23 09:42:21;;;;;;;7.78;4.87;;;15.90;74.90;;;;;;10943395;32;20300;-73
2022/04/23 09:48:23;;;;;;;8.45;7.05;;;16.10;74.60;;;;;;10938920;32;20023;-73
2022/04/23 09:54:27;;;;;;;5.07;3.42;;;16.30;74.20;;;;;;10942694;32;20015;-73
2022/04/23 10:00:30;;;;;;;4.15;2.72;;;16.30;73.90;;;;;;10938643;32;20031;-72
2022/04/23 10:06:35;;;;;;;2.45;2.25;;;16.60;73.50;;;;;;10942530;32;20089;-72
2022/04/23 10:12:38;;;;;;;5.62;3.97;;;16.80;73.00;;;;;;10942239;32;20328;-73
2022/04/23 10:18:42;;;;;;;11.75;7.82;;;16.70;73.10;;;;;;10942225;32;20425;-73
2022/04/23 10:25:40;;;;;;;9.20;5.97;;;16.60;73.10;;;;;;10938351;32;20065;-74
2022/04/23 10:31:42;;;;;;;9.23;4.50;;;16.50;73.30;;;;;;10940384;32;20058;-72
2022/04/23 10:37:49;;;;;;;6.97;4.20;;;16.60;73.50;;;;;;10928054;32;20413;-72
2022/04/23 10:44:00;;;;;;;6.78;4.65;;;16.70;73.00;;;;;;10938480;32;20022;-73
2022/04/23 10:50:19;;;;;;;6.85;6.00;;;17.10;72.50;;;;;;10941586;32;20077;-73
2022/04/23 10:56:23;;;;;;;5.78;4.75;;;17.50;71.30;;;;;;10939609;32;20023;-73
2022/04/23 11:02:25;;;;;;;4.70;3.65;;;17.50;71.30;;;;;;10940280;32;20023;-70
2022/04/23 11:14:52;;;;;;;6.00;4.43;;;17.40;71.60;;;;;;10940689;32;20031;-69
2022/04/23 11:21:26;;;;;;;7.37;4.97;;;17.30;71.50;;;;;;10936699;32;20049;-70
2022/04/23 11:27:37;;;;;;;5.05;3.87;;;17.10;71.80;;;;;;10862283;32;20027;-73
2022/04/23 11:33:50;;;;;;;4.03;3.00;;;17.20;72.00;;;;;;10861537;32;20300;-72
2022/04/23 11:40:02;;;;;;;4.78;2.95;;;17.90;71.10;;;;;;10861443;32;20059;-72
2022/04/23 11:46:08;;;;;;;5.25;3.70;;;18.30;69.70;;;;;;10868236;32;20102;-69
2022/04/23 11:52:12;;;;;;;5.78;4.20;;;18.20;69.40;;;;;;10864111;32;20146;-69
2022/04/23 11:58:19;;;;;;;9.95;7.00;;;18.10;69.80;;;;;;10866845;32;20057;-70
2022/04/23 12:04:21;;;;;;;5.62;4.07;;;18.80;68.70;;;;;;10936005;32;20030;-73
2022/04/23 12:10:31;;;;;;;7.95;5.12;;;18.90;67.80;;;;;;10943876;32;20038;-73
2022/04/23 12:16:41;;;;;;;5.28;2.80;;;19.00;67.20;;;;;;10942293;32;20070;-72
2022/04/23 12:23:03;;;;;;;8.68;3.28;;;19.10;67.30;;;;;;10979238;32;20027;-73
2022/04/23 12:42:11;;;;;;;6.93;4.25;;;19.50;65.40;;;;;;10981624;32;20064;-73
2022/04/23 12:48:14;;;;;;;5.00;2.67;;;19.60;64.90;;;;;;10983077;32;20018;-73
2022/04/23 12:54:16;;;;;;;4.68;2.20;;;19.70;64.60;;;;;;10945586;32;20065;-72
2022/04/23 13:00:25;;;;;;;7.37;3.37;;;19.60;64.50;;;;;;10940182;32;20308;-73
2022/04/23 13:12:49;;;;;;;4.18;2.33;;;19.10;65.10;;;;;;10942158;32;20052;-72
2022/04/23 13:18:54;;;;;;;5.70;4.25;;;19.20;65.10;;;;;;10940779;32;20027;-74
2022/04/23 13:24:56;;;;;;;4.53;2.20;;;19.60;64.30;;;;;;10948103;32;20054;-73
2022/04/23 13:30:58;;;;;;;4.32;3.35;;;19.70;64.30;;;;;;10931734;32;20069;-73
2022/04/23 13:37:02;;;;;;;5.72;3.65;;;19.90;63.80;;;;;;10929659;32;20037;-73
2022/04/23 13:43:04;;;;;;;4.32;2.75;;;20.00;63.60;;;;;;10942138;32;20023;-73
2022/04/23 13:49:06;;;;;;;9.23;5.10;;;20.00;63.00;;;;;;10943128;32;20390;-72
2022/04/23 13:55:10;;;;;;;4.45;2.92;;;20.00;63.20;;;;;;10939548;32;20034;-70
2022/04/23 14:01:12;;;;;;;5.78;3.87;;;20.10;62.90;;;;;;10936734;32;20030;-70
2022/04/23 14:13:35;;;;;;;4.80;2.22;;;20.00;62.80;;;;;;10936982;32;20390;-70
2022/04/23 14:19:38;;;;;;;6.72;4.75;;;19.80;63.40;;;;;;10939755;32;20046;-70
2022/04/23 14:25:40;;;;;;;7.93;5.72;;;19.60;63.80;;;;;;10940422;32;20030;-70
2022/04/23 14:31:42;;;;;;;7.65;5.50;;;19.30;64.70;;;;;;10939655;32;20057;-70
2022/04/23 14:37:44;;;;;;;8.07;4.87;;;19.00;65.70;;;;;;10940347;32;20027;-70
2022/04/23 14:43:46;;;;;;;8.25;5.95;;;18.90;66.80;;;;;;10940640;32;20340;-70
2022/04/23 14:49:55;;;;;;;10.50;5.78;;;19.00;66.70;;;;;;10939434;32;20441;-70
2022/04/23 14:55:57;;;;;;;6.80;4.45;;;18.90;66.60;;;;;;10939197;32;20030;-69
2022/04/23 15:02:00;;;;;;;10.05;7.43;;;18.80;66.80;;;;;;10940840;32;20391;-70
2022/04/23 15:08:11;;;;;;;7.32;5.35;;;18.60;67.10;;;;;;10940882;32;20047;-70
2022/04/23 15:14:13;;;;;;;8.32;5.47;;;18.60;67.40;;;;;;10940417;32;20380;-70
2022/04/23 15:20:15;;;;;;;9.77;7.35;;;18.60;67.30;;;;;;10946042;32;20395;-69
2022/04/23 15:26:18;;;;;;;7.90;6.35;;;18.50;67.10;;;;;;10943155;32;20015;-70
2022/04/23 15:32:21;;;;;;;7.95;6.43;;;18.30;67.50;;;;;;10946793;32;20049;-70
2022/04/23 15:38:24;;;;;;;5.62;4.43;;;18.20;68.40;;;;;;10945766;32;20081;-69
2022/04/23 15:44:26;;;;;;;8.60;3.42;;;17.90;68.90;;;;;;10945259;32;20018;-69
2022/04/23 15:50:28;;;;;;;10.88;6.90;;;17.70;69.10;;;;;;10930942;32;20049;-70
2022/04/23 15:56:30;;;;;;;11.02;8.85;;;17.50;69.30;;;;;;10946348;32;20035;-69
2022/04/23 16:02:33;;;;;;;16.15;14.05;;;17.40;69.20;;;;;;10943076;32;20081;-69
2022/04/23 16:08:36;;;;;;;13.85;11.75;;;17.20;69.80;;;;;;10946023;32;20030;-70
2022/04/23 16:14:38;;;;;;;10.38;7.93;;;17.10;70.10;;;;;;10932079;32;20027;-70
2022/04/23 16:20:41;;;;;;;12.23;8.00;;;17.20;69.90;;;;;;10941339;32;20339;-70
2022/04/23 16:26:44;;;;;;;7.93;5.62;;;17.20;69.80;;;;;;10944605;32;20415;-69
2022/04/23 16:32:46;;;;;;;9.32;6.70;;;17.20;69.70;;;;;;10944604;32;20023;-69
2022/04/23 16:51:34;;;;;;;5.07;3.97;;;17.00;69.80;;;;;;10934293;32;20030;-69
2022/04/23 16:57:36;;;;;;;4.72;3.83;;;17.00;69.80;;;;;;10939737;32;20057;-69
2022/04/23 17:03:39;;;;;;;10.43;5.00;;;16.90;70.00;;;;;;10940953;32;20425;-70
2022/04/23 17:09:41;;;;;;;14.73;6.22;;;16.90;70.10;;;;;;10943565;32;20035;-70
2022/04/23 17:15:53;;;;;;;10.32;7.55;;;16.90;70.30;;;;;;10954161;27;20043;-70
2022/04/23 17:21:56;;;;;;;10.70;5.75;;;16.80;70.80;;;;;;10980940;32;20045;-70
2022/04/23 17:27:58;;;;;;;9.15;5.32;;;16.70;71.40;;;;;;10980628;32;20030;-70
2022/04/23 17:34:00;;;;;;;7.22;5.00;;;16.60;71.70;;;;;;10980350;32;20304;-70
2022/04/23 17:40:02;;;;;;;11.98;8.50;;;16.60;71.70;;;;;;10965327;32;20035;-69
2022/04/23 17:46:06;;;;;;;14.25;8.63;;;16.60;71.70;;;;;;10941907;32;20022;-69
2022/04/23 17:52:39;;;;;;;12.00;7.50;;;16.60;71.70;;;;;;10942120;32;20394;-69
2022/04/23 17:59:17;;;;;;;10.73;6.65;;;16.60;71.80;;;;;;10850095;32;20062;-69
2022/04/23 18:11:40;;;;;;;10.32;5.32;;;16.50;72.10;;;;;;10826161;32;20055;-68
2022/04/23 18:17:42;;;;;;;16.02;5.65;;;16.40;72.30;;;;;;10825970;32;20062;-68
2022/04/23 18:23:45;;;;;;;12.57;6.53;;;16.40;72.30;;;;;;10824574;32;20444;-68
2022/04/23 18:29:48;;;;;;;10.85;6.30;;;16.40;72.60;;;;;;10825887;32;20341;-68
2022/04/23 18:35:50;;;;;;;7.15;5.50;;;16.30;72.90;;;;;;10900029;32;20425;-69
2022/04/23 18:41:52;;;;;;;7.43;5.07;;;16.30;73.10;;;;;;10941363;32;20049;-68
2022/04/23 18:47:54;;;;;;;9.30;4.43;;;16.30;73.00;;;;;;10941077;32;20027;-68
2022/04/23 18:53:56;;;;;;;6.07;4.18;;;16.20;73.00;;;;;;10945850;32;20039;-68
2022/04/23 18:59:58;;;;;;;4.70;3.10;;;16.20;73.30;;;;;;10986859;32;20037;-68
2022/04/23 19:06:04;;;;;;;6.60;5.72;;;16.20;73.40;;;;;;10986540;32;20026;-68
2022/04/23 19:12:07;;;;;;;14.13;9.32;;;16.20;73.60;;;;;;10971870;32;20318;-69
2022/04/23 19:18:09;;;;;;;9.07;6.05;;;16.10;74.10;;;;;;10986120;32;20026;-68
2022/04/23 19:30:35;;;;;;;11.85;7.03;;;15.90;74.60;;;;;;10985684;32;20226;-69
2022/04/23 19:36:38;;;;;;;6.30;4.20;;;15.90;74.80;;;;;;10985421;32;20030;-68
2022/04/23 19:42:40;;;;;;;6.87;4.18;;;15.80;75.00;;;;;;10981123;32;20034;-68
2022/04/23 19:48:42;;;;;;;8.45;5.00;;;15.80;75.30;;;;;;10985245;32;20030;-69
2022/04/23 19:54:45;;;;;;;5.93;3.67;;;15.80;75.20;;;;;;10985061;32;20429;-68
2022/04/23 20:00:47;;;;;;;8.45;3.37;;;15.70;75.40;;;;;;10984816;32;20026;-68
2022/04/23 20:06:50;;;;;;;6.80;4.28;;;15.70;75.70;;;;;;10979298;32;20027;-70
2022/04/23 20:12:52;;;;;;;5.45;4.18;;;15.70;76.00;;;;;;10984250;32;20061;-68
2022/04/23 20:18:54;;;;;;;6.47;4.22;;;15.60;76.10;;;;;;10973638;32;20026;-69
2022/04/23 20:24:56;;;;;;;6.68;4.35;;;15.70;76.30;;;;;;10944570;32;20034;-70
2022/04/23 20:30:58;;;;;;;6.60;4.15;;;15.60;76.80;;;;;;10942612;32;20066;-68
2022/04/23 20:43:36;;;;;;;9.75;6.03;;;15.50;77.20;;;;;;10945666;32;20027;-68
2022/04/23 20:49:39;;;;;;;12.55;6.75;;;15.50;77.50;;;;;;10945540;32;20031;-69
2022/04/23 20:56:00;;;;;;;11.95;6.37;;;15.50;77.80;;;;;;10945281;32;20050;-69
2022/04/23 21:02:02;;;;;;;8.40;5.78;;;15.40;78.40;;;;;;10943371;32;20053;-69
2022/04/23 21:08:08;;;;;;;12.82;8.82;;;15.30;78.90;;;;;;10931537;32;20035;-69
2022/04/23 21:14:11;;;;;;;8.77;6.97;;;15.20;79.40;;;;;;10944387;32;20200;-69
2022/04/23 21:20:13;;;;;;;15.23;9.95;;;15.20;79.50;;;;;;10944494;32;20467;-69
2022/04/23 21:26:16;;;;;;;13.40;9.98;;;15.20;79.60;;;;;;10944368;32;20030;-70
2022/04/23 21:32:18;;;;;;;10.13;7.72;;;15.10;79.70;;;;;;10930504;32;20421;-70
2022/04/23 21:38:21;;;;;;;8.63;5.68;;;15.20;79.50;;;;;;10943867;32;20391;-69
2022/04/23 21:50:43;;;;;;;13.23;6.30;;;15.20;79.20;;;;;;10943490;32;20046;-69
2022/04/23 21:56:45;;;;;;;15.68;8.68;;;15.20;79.20;;;;;;10943074;32;20359;-70
2022/04/23 22:02:48;;;;;;;13.48;7.68;;;15.20;79.40;;;;;;10942771;32;20046;-69
2022/04/23 22:08:50;;;;;;;12.55;8.88;;;15.00;79.70;;;;;;10940505;32;20035;-68
2022/04/23 22:14:52;;;;;;;11.63;5.60;;;15.00;80.00;;;;;;10939145;32;20022;-68
2022/04/23 22:20:54;;;;;;;9.98;6.45;;;15.00;80.00;;;;;;10942231;32;20039;-70
2022/04/23 22:26:56;;;;;;;11.10;7.90;;;15.10;79.70;;;;;;10941466;32;20339;-68
2022/04/23 22:32:58;;;;;;;11.98;7.47;;;15.20;79.50;;;;;;10941869;32;20316;-69
2022/04/23 22:39:01;;;;;;;10.43;8.00;;;15.20;79.40;;;;;;10941699;32;20030;-69
2022/04/23 22:45:03;;;;;;;11.40;6.62;;;15.20;79.50;;;;;;10941760;32;20425;-69
2022/04/23 22:51:28;;;;;;;9.65;7.00;;;15.10;79.50;;;;;;10941535;32;20031;-69
2022/04/23 22:57:45;;;;;;;9.15;5.55;;;15.20;79.20;;;;;;10941475;32;20031;-69
2022/04/23 23:03:47;;;;;;;10.00;4.62;;;15.20;79.00;;;;;;10941428;32;20355;-68
2022/04/23 23:09:49;;;;;;;16.37;14.05;;;15.20;78.80;;;;;;10941407;32;20039;-70
2022/04/23 23:15:51;;;;;;;19.08;12.27;;;15.10;79.30;;;;;;10941207;32;20018;-70
2022/04/23 23:21:53;;;;;;;8.38;4.68;;;15.00;79.70;;;;;;10941020;32;20394;-70
2022/04/23 23:27:55;;;;;;;10.45;4.65;;;14.90;80.00;;;;;;10940930;32;20050;-69
2022/04/23 23:34:04;;;;;;;9.07;5.82;;;14.90;80.00;;;;;;10940755;32;20407;-68
2022/04/23 23:40:06;;;;;;;7.32;4.25;;;14.90;80.00;;;;;;10945560;32;20022;-68
2022/04/23 23:46:09;;;;;;;5.07;2.78;;;14.90;80.00;;;;;;10948397;32;20027;-68
2022/04/23 23:52:12;;;;;;;5.12;2.47;;;15.00;79.70;;;;;;10946554;32;20066;-68
2022/04/23 23:58:18;;;;;;;5.37;2.97;;;15.00;79.30;;;;;;10947381;32;20023;-68
